sensor_id;sensor_type;location;lat;lon;timestamp;pressure;altitude;pressure_sealevel;temperature;humidity
21817;BME280;13247;47.504;7.382;2023-02-13T00:02:03;99096.44;;;0.84;100.00
21817;BME280;13247;47.504;7.382;2023-02-13T00:04:47;99095.94;;;0.70;100.00
21817;BME280;13247;47.504;7.382;2023-02-13T00:07:32;99095.88;;;0.68;100.00
21817;BME280;13247;47.504;7.382;2023-02-13T00:10:17;99090.22;;;0.78;100.00
21817;BME280;13247;47.504;7.382;2023-02-13T00:13:01;99088.19;;;0.70;100.00
21817;BME280;13247;47.504;7.382;2023-02-13T00:15:55;99087.00;;;0.60;100.00
21817;BME280;13247;47.504;7.382;2023-02-13T00:18:40;99095.34;;;0.53;100.00
21817;BME280;13247;47.504;7.382;2023-02-13T00:21:25;99090.50;;;0.62;100.00
21817;BME280;13247;47.504;7.382;2023-02-13T00:24:09;99088.69;;;0.36;100.00
21817;BME280;13247;47.504;7.382;2023-02-13T00:26:54;99094.31;;;0.48;100.00
21817;BME280;13247;47.504;7.382;2023-02-13T00:29:38;99093.25;;;0.67;100.00
21817;BME280;13247;47.504;7.382;2023-02-13T00:32:23;99095.50;;;0.82;100.00
21817;BME280;13247;47.504;7.382;2023-02-13T00:35:07;99087.75;;;0.82;100.00
21817;BME280;13247;47.504;7.382;2023-02-13T00:37:52;99100.13;;;0.66;100.00
21817;BME280;13247;47.504;7.382;2023-02-13T00:40:36;99100.72;;;0.59;100.00
21817;BME280;13247;47.504;7.382;2023-02-13T00:43:21;99108.41;;;0.58;100.00
21817;BME280;13247;47.504;7.382;2023-02-13T00:46:06;99097.19;;;0.57;100.00
21817;BME280;13247;47.504;7.382;2023-02-13T00:48:51;99104.13;;;0.58;100.00
21817;BME280;13247;47.504;7.382;2023-02-13T00:51:35;99106.75;;;0.60;100.00
21817;BME280;13247;47.504;7.382;2023-02-13T00:54:20;99111.38;;;0.68;100.00
21817;BME280;13247;47.504;7.382;2023-02-13T00:57:05;99106.97;;;0.66;100.00
21817;BME280;13247;47.504;7.382;2023-02-13T00:59:50;99114.25;;;0.52;100.00
21817;BME280;13247;47.504;7.382;2023-02-13T01:02:34;99115.00;;;0.50;100.00
21817;BME280;13247;47.504;7.382;2023-02-13T01:05:19;99110.81;;;0.53;100.00
21817;BME280;13247;47.504;7.382;2023-02-13T01:08:04;99100.41;;;0.50;100.00
21817;BME280;13247;47.504;7.382;2023-02-13T01:10:50;99109.16;;;0.55;100.00
21817;BME280;13247;47.504;7.382;2023-02-13T01:13:34;99108.44;;;0.59;100.00
21817;BME280;13247;47.504;7.382;2023-02-13T01:16:19;99116.44;;;0.65;100.00
21817;BME280;13247;47.504;7.382;2023-02-13T01:19:04;99116.53;;;0.45;100.00
21817;BME280;13247;47.504;7.382;2023-02-13T01:21:48;99104.63;;;0.48;100.00
21817;BME280;13247;47.504;7.382;2023-02-13T01:24:34;99115.41;;;0.60;100.00
21817;BME280;13247;47.504;7.382;2023-02-13T01:27:18;99103.38;;;0.61;100.00
21817;BME280;13247;47.504;7.382;2023-02-13T01:30:04;99094.22;;;0.70;100.00
21817;BME280;13247;47.504;7.382;2023-02-13T01:32:49;99091.69;;;0.72;100.00
21817;BME280;13247;47.504;7.382;2023-02-13T01:35:34;99097.09;;;0.54;100.00
21817;BME280;13247;47.504;7.382;2023-02-13T01:38:18;99104.13;;;0.35;100.00
21817;BME280;13247;47.504;7.382;2023-02-13T01:41:03;99093.63;;;0.77;100.00
21817;BME280;13247;47.504;7.382;2023-02-13T01:43:54;99093.53;;;0.74;100.00
21817;BME280;13247;47.504;7.382;2023-02-13T01:46:41;99090.34;;;1.07;100.00
21817;BME280;13247;47.504;7.382;2023-02-13T01:49:27;99092.13;;;1.08;100.00
21817;BME280;13247;47.504;7.382;2023-02-13T01:52:13;99095.31;;;1.01;100.00
21817;BME280;13247;47.504;7.382;2023-02-13T01:54:58;99091.78;;;0.99;100.00
21817;BME280;13247;47.504;7.382;2023-02-13T01:57:48;99090.09;;;0.99;100.00
21817;BME280;13247;47.504;7.382;2023-02-13T02:00:36;99085.75;;;0.98;100.00
21817;BME280;13247;47.504;7.382;2023-02-13T02:04:27;99089.00;;;0.93;100.00
21817;BME280;13247;47.504;7.382;2023-02-13T02:06:46;99085.69;;;0.97;100.00
21817;BME280;13247;47.504;7.382;2023-02-13T02:09:34;99084.84;;;1.23;100.00
21817;BME280;13247;47.504;7.382;2023-02-13T02:12:51;99095.00;;;1.17;100.00
21817;BME280;13247;47.504;7.382;2023-02-13T02:15:37;99094.69;;;1.08;100.00
21817;BME280;13247;47.504;7.382;2023-02-13T02:18:23;99087.00;;;1.09;100.00
21817;BME280;13247;47.504;7.382;2023-02-13T02:24:16;99102.84;;;1.20;100.00
21817;BME280;13247;47.504;7.382;2023-02-13T02:42:46;99088.44;;;1.26;100.00
21817;BME280;13247;47.504;7.382;2023-02-13T02:52:17;99074.22;;;1.39;100.00
21817;BME280;13247;47.504;7.382;2023-02-13T03:01:17;99087.41;;;0.96;100.00
21817;BME280;13247;47.504;7.382;2023-02-13T03:04:39;99086.50;;;0.96;100.00
21817;BME280;13247;47.504;7.382;2023-02-13T03:07:43;99090.66;;;1.16;100.00
21817;BME280;13247;47.504;7.382;2023-02-13T03:10:31;99088.84;;;1.13;100.00
21817;BME280;13247;47.504;7.382;2023-02-13T03:13:38;99091.53;;;1.16;100.00
21817;BME280;13247;47.504;7.382;2023-02-13T03:16:25;99096.69;;;1.16;100.00
21817;BME280;13247;47.504;7.382;2023-02-13T03:22:59;99102.00;;;0.96;100.00
21817;BME280;13247;47.504;7.382;2023-02-13T03:29:13;99091.59;;;0.93;100.00
21817;BME280;13247;47.504;7.382;2023-02-13T03:32:48;99094.00;;;0.88;100.00
21817;BME280;13247;47.504;7.382;2023-02-13T03:39:28;99098.28;;;0.88;100.00
21817;BME280;13247;47.504;7.382;2023-02-13T03:42:22;99105.31;;;0.92;100.00
21817;BME280;13247;47.504;7.382;2023-02-13T03:45:41;99110.22;;;0.84;100.00
21817;BME280;13247;47.504;7.382;2023-02-13T03:48:41;99104.22;;;0.85;100.00
21817;BME280;13247;47.504;7.382;2023-02-13T03:51:54;99109.22;;;0.80;100.00
21817;BME280;13247;47.504;7.382;2023-02-13T03:54:51;99112.53;;;0.76;100.00
21817;BME280;13247;47.504;7.382;2023-02-13T03:58:04;99115.72;;;0.69;100.00
21817;BME280;13247;47.504;7.382;2023-02-13T04:01:12;99115.34;;;0.59;100.00
21817;BME280;13247;47.504;7.382;2023-02-13T04:04:11;99119.41;;;0.52;100.00
21817;BME280;13247;47.504;7.382;2023-02-13T04:07:09;99119.41;;;0.52;100.00
21817;BME280;13247;47.504;7.382;2023-02-13T04:10:10;99123.81;;;0.55;100.00
21817;BME280;13247;47.504;7.382;2023-02-13T04:13:15;99125.59;;;0.57;100.00
21817;BME280;13247;47.504;7.382;2023-02-13T04:16:16;99132.47;;;0.57;100.00
21817;BME280;13247;47.504;7.382;2023-02-13T04:19:03;99137.72;;;0.60;100.00
21817;BME280;13247;47.504;7.382;2023-02-13T04:21:53;99130.91;;;0.62;100.00
21817;BME280;13247;47.504;7.382;2023-02-13T04:24:39;99142.00;;;0.59;100.00
21817;BME280;13247;47.504;7.382;2023-02-13T04:27:26;99147.13;;;0.58;100.00
21817;BME280;13247;47.504;7.382;2023-02-13T04:30:11;99140.06;;;0.52;100.00
21817;BME280;13247;47.504;7.382;2023-02-13T04:32:56;99142.53;;;0.51;100.00
21817;BME280;13247;47.504;7.382;2023-02-13T04:35:41;99148.81;;;0.34;100.00
21817;BME280;13247;47.504;7.382;2023-02-13T04:38:25;99153.41;;;0.42;100.00
21817;BME280;13247;47.504;7.382;2023-02-13T04:41:10;99144.06;;;0.44;100.00
21817;BME280;13247;47.504;7.382;2023-02-13T04:43:55;99150.16;;;0.46;100.00
21817;BME280;13247;47.504;7.382;2023-02-13T04:46:40;99148.50;;;0.48;100.00
21817;BME280;13247;47.504;7.382;2023-02-13T04:49:24;99142.50;;;0.49;100.00
21817;BME280;13247;47.504;7.382;2023-02-13T04:52:09;99153.66;;;0.48;100.00
21817;BME280;13247;47.504;7.382;2023-02-13T04:54:54;99147.66;;;0.49;100.00
21817;BME280;13247;47.504;7.382;2023-02-13T04:57:38;99152.88;;;0.51;100.00
21817;BME280;13247;47.504;7.382;2023-02-13T05:00:25;99153.66;;;0.48;100.00
21817;BME280;13247;47.504;7.382;2023-02-13T05:03:12;99150.03;;;0.43;100.00
21817;BME280;13247;47.504;7.382;2023-02-13T05:05:57;99149.91;;;0.40;100.00
21817;BME280;13247;47.504;7.382;2023-02-13T05:08:42;99150.56;;;0.35;100.00
21817;BME280;13247;47.504;7.382;2023-02-13T05:11:26;99152.25;;;0.34;100.00
21817;BME280;13247;47.504;7.382;2023-02-13T05:14:11;99149.00;;;0.16;100.00
21817;BME280;13247;47.504;7.382;2023-02-13T05:16:56;99141.72;;;0.06;100.00
21817;BME280;13247;47.504;7.382;2023-02-13T05:19:41;99151.84;;;0.02;100.00
21817;BME280;13247;47.504;7.382;2023-02-13T05:22:25;99144.88;;;-0.01;100.00
21817;BME280;13247;47.504;7.382;2023-02-13T05:25:29;99146.97;;;0.09;100.00
21817;BME280;13247;47.504;7.382;2023-02-13T05:28:14;99144.22;;;0.05;100.00
21817;BME280;13247;47.504;7.382;2023-02-13T05:31:18;99152.03;;;0.06;100.00
21817;BME280;13247;47.504;7.382;2023-02-13T05:34:02;99143.50;;;0.09;100.00
21817;BME280;13247;47.504;7.382;2023-02-13T05:36:47;99145.34;;;0.11;100.00
21817;BME280;13247;47.504;7.382;2023-02-13T05:39:32;99144.72;;;0.17;100.00
21817;BME280;13247;47.504;7.382;2023-02-13T05:42:17;99144.81;;;0.20;100.00
21817;BME280;13247;47.504;7.382;2023-02-13T05:45:02;99145.69;;;0.20;100.00
21817;BME280;13247;47.504;7.382;2023-02-13T05:47:46;99148.09;;;0.16;100.00
21817;BME280;13247;47.504;7.382;2023-02-13T05:50:31;99153.38;;;0.19;100.00
21817;BME280;13247;47.504;7.382;2023-02-13T05:53:15;99151.63;;;0.18;100.00
21817;BME280;13247;47.504;7.382;2023-02-13T05:56:02;99151.50;;;0.15;100.00
21817;BME280;13247;47.504;7.382;2023-02-13T05:58:51;99145.47;;;0.14;100.00
21817;BME280;13247;47.504;7.382;2023-02-13T06:01:36;99148.84;;;0.13;100.00
21817;BME280;13247;47.504;7.382;2023-02-13T06:04:20;99153.22;;;0.14;100.00
21817;BME280;13247;47.504;7.382;2023-02-13T06:07:05;99154.91;;;0.14;100.00
21817;BME280;13247;47.504;7.382;2023-02-13T06:09:49;99152.28;;;0.12;100.00
21817;BME280;13247;47.504;7.382;2023-02-13T06:12:34;99160.94;;;0.14;100.00
21817;BME280;13247;47.504;7.382;2023-02-13T06:15:19;99162.59;;;0.12;100.00
21817;BME280;13247;47.504;7.382;2023-02-13T06:18:03;99160.59;;;0.05;100.00
21817;BME280;13247;47.504;7.382;2023-02-13T06:20:48;99161.47;;;0.06;100.00
21817;BME280;13247;47.504;7.382;2023-02-13T06:23:32;99163.38;;;0.11;100.00
21817;BME280;13247;47.504;7.382;2023-02-13T06:26:17;99168.78;;;0.17;100.00
21817;BME280;13247;47.504;7.382;2023-02-13T06:29:02;99172.91;;;0.12;100.00
21817;BME280;13247;47.504;7.382;2023-02-13T06:31:47;99169.44;;;0.12;100.00
21817;BME280;13247;47.504;7.382;2023-02-13T06:34:31;99167.28;;;0.00;100.00
21817;BME280;13247;47.504;7.382;2023-02-13T06:37:16;99173.06;;;-0.06;100.00
21817;BME280;13247;47.504;7.382;2023-02-13T06:40:00;99165.97;;;-0.11;100.00
21817;BME280;13247;47.504;7.382;2023-02-13T06:42:46;99177.50;;;-0.24;100.00
21817;BME280;13247;47.504;7.382;2023-02-13T06:45:31;99174.59;;;-0.31;100.00
21817;BME280;13247;47.504;7.382;2023-02-13T06:48:16;99182.13;;;-0.36;100.00
21817;BME280;13247;47.504;7.382;2023-02-13T06:51:00;99180.50;;;-0.54;100.00
21817;BME280;13247;47.504;7.382;2023-02-13T06:53:45;99186.78;;;-0.48;100.00
21817;BME280;13247;47.504;7.382;2023-02-13T06:56:30;99191.63;;;-0.55;100.00
21817;BME280;13247;47.504;7.382;2023-02-13T06:59:16;99190.28;;;-0.66;100.00
21817;BME280;13247;47.504;7.382;2023-02-13T07:02:01;99195.41;;;-0.68;100.00
21817;BME280;13247;47.504;7.382;2023-02-13T07:04:45;99191.00;;;-0.70;100.00
21817;BME280;13247;47.504;7.382;2023-02-13T07:07:34;99197.53;;;-0.58;100.00
21817;BME280;13247;47.504;7.382;2023-02-13T07:10:19;99193.28;;;-0.57;100.00
21817;BME280;13247;47.504;7.382;2023-02-13T07:13:04;99192.72;;;-0.69;100.00
21817;BME280;13247;47.504;7.382;2023-02-13T07:15:48;99197.88;;;-0.69;100.00
21817;BME280;13247;47.504;7.382;2023-02-13T07:18:33;99204.81;;;-0.68;100.00
21817;BME280;13247;47.504;7.382;2023-02-13T07:21:18;99200.47;;;-0.69;100.00
21817;BME280;13247;47.504;7.382;2023-02-13T07:24:02;99197.88;;;-0.69;100.00
21817;BME280;13247;47.504;7.382;2023-02-13T07:26:47;99201.41;;;-0.67;100.00
21817;BME280;13247;47.504;7.382;2023-02-13T07:29:32;99201.84;;;-0.57;100.00
21817;BME280;13247;47.504;7.382;2023-02-13T07:32:16;99196.34;;;-0.45;100.00
21817;BME280;13247;47.504;7.382;2023-02-13T07:35:01;99202.31;;;-0.46;100.00
21817;BME280;13247;47.504;7.382;2023-02-13T07:37:45;99198.09;;;-0.44;100.00
21817;BME280;13247;47.504;7.382;2023-02-13T07:40:30;99197.47;;;-0.39;100.00
21817;BME280;13247;47.504;7.382;2023-02-13T07:43:14;99197.47;;;-0.39;100.00
21817;BME280;13247;47.504;7.382;2023-02-13T07:46:01;99203.75;;;-0.32;100.00
21817;BME280;13247;47.504;7.382;2023-02-13T07:48:45;99201.28;;;-0.29;100.00
21817;BME280;13247;47.504;7.382;2023-02-13T07:51:30;99211.56;;;-0.31;100.00
21817;BME280;13247;47.504;7.382;2023-02-13T07:54:14;99203.31;;;-0.22;100.00
21817;BME280;13247;47.504;7.382;2023-02-13T07:56:59;99201.34;;;-0.07;100.00
21817;BME280;13247;47.504;7.382;2023-02-13T07:59:44;99198.38;;;0.05;100.00
21817;BME280;13247;47.504;7.382;2023-02-13T08:02:29;99191.91;;;0.14;100.00
21817;BME280;13247;47.504;7.382;2023-02-13T08:05:14;99184.66;;;0.28;100.00
21817;BME280;13247;47.504;7.382;2023-02-13T08:07:58;99199.53;;;0.33;100.00
21817;BME280;13247;47.504;7.382;2023-02-13T08:10:43;99183.63;;;0.45;100.00
21817;BME280;13247;47.504;7.382;2023-02-13T08:13:46;99191.56;;;0.51;100.00
21817;BME280;13247;47.504;7.382;2023-02-13T08:16:31;99196.22;;;0.59;100.00
21817;BME280;13247;47.504;7.382;2023-02-13T08:19:16;99191.97;;;0.61;100.00
21817;BME280;13247;47.504;7.382;2023-02-13T08:22:00;99203.94;;;0.59;100.00
21817;BME280;13247;47.504;7.382;2023-02-13T08:24:45;99198.22;;;0.66;100.00
21817;BME280;13247;47.504;7.382;2023-02-13T08:27:30;99202.56;;;0.67;100.00
21817;BME280;13247;47.504;7.382;2023-02-13T08:30:18;99201.22;;;0.78;100.00
21817;BME280;13247;47.504;7.382;2023-02-13T08:33:02;99204.53;;;0.74;100.00
21817;BME280;13247;47.504;7.382;2023-02-13T08:35:47;99205.94;;;0.89;100.00
21817;BME280;13247;47.504;7.382;2023-02-13T08:38:32;99196.25;;;1.07;100.00
21817;BME280;13247;47.504;7.382;2023-02-13T08:41:17;99201.13;;;1.23;100.00
21817;BME280;13247;47.504;7.382;2023-02-13T08:44:04;99197.91;;;1.53;100.00
21817;BME280;13247;47.504;7.382;2023-02-13T08:46:49;99198.22;;;2.43;100.00
21817;BME280;13247;47.504;7.382;2023-02-13T08:49:34;99193.78;;;2.38;100.00
21817;BME280;13247;47.504;7.382;2023-02-13T08:52:18;99200.06;;;2.20;100.00
21817;BME280;13247;47.504;7.382;2023-02-13T08:55:03;99197.16;;;2.09;100.00
21817;BME280;13247;47.504;7.382;2023-02-13T08:57:48;99203.34;;;2.14;100.00
21817;BME280;13247;47.504;7.382;2023-02-13T09:00:33;99200.00;;;2.17;100.00
21817;BME280;13247;47.504;7.382;2023-02-13T09:03:18;99206.13;;;2.20;100.00
21817;BME280;13247;47.504;7.382;2023-02-13T09:06:03;99206.25;;;2.23;100.00
21817;BME280;13247;47.504;7.382;2023-02-13T09:08:48;99195.16;;;2.27;100.00
21817;BME280;13247;47.504;7.382;2023-02-13T09:11:33;99197.81;;;2.30;100.00
21817;BME280;13247;47.504;7.382;2023-02-13T09:14:17;99193.84;;;2.42;100.00
21817;BME280;13247;47.504;7.382;2023-02-13T09:17:02;99197.06;;;2.61;100.00
21817;BME280;13247;47.504;7.382;2023-02-13T09:19:47;99189.34;;;2.64;100.00
21817;BME280;13247;47.504;7.382;2023-02-13T09:22:31;99194.03;;;2.76;100.00
21817;BME280;13247;47.504;7.382;2023-02-13T09:25:16;99188.09;;;2.80;100.00
21817;BME280;13247;47.504;7.382;2023-02-13T09:28:03;99188.06;;;3.08;100.00
21817;BME280;13247;47.504;7.382;2023-02-13T09:30:47;99186.69;;;3.22;100.00
21817;BME280;13247;47.504;7.382;2023-02-13T09:33:32;99189.91;;;3.45;100.00
21817;BME280;13247;47.504;7.382;2023-02-13T09:36:19;99193.97;;;3.68;100.00
21817;BME280;13247;47.504;7.382;2023-02-13T09:39:04;99186.56;;;3.83;100.00
21817;BME280;13247;47.504;7.382;2023-02-13T09:41:50;99196.56;;;4.02;100.00
21817;BME280;13247;47.504;7.382;2023-02-13T09:44:39;99192.69;;;4.21;100.00
21817;BME280;13247;47.504;7.382;2023-02-13T09:50:20;99192.47;;;4.49;100.00
21817;BME280;13247;47.504;7.382;2023-02-13T09:53:19;99197.03;;;4.59;100.00
21817;BME280;13247;47.504;7.382;2023-02-13T09:56:09;99197.09;;;4.62;100.00
21817;BME280;13247;47.504;7.382;2023-02-13T09:59:19;99194.97;;;4.85;100.00
21817;BME280;13247;47.504;7.382;2023-02-13T10:17:49;99179.34;;;5.73;100.00
21817;BME280;13247;47.504;7.382;2023-02-13T10:20:45;99173.53;;;5.86;100.00
21817;BME280;13247;47.504;7.382;2023-02-13T10:23:42;99174.41;;;5.86;100.00
21817;BME280;13247;47.504;7.382;2023-02-13T10:26:32;99174.75;;;6.06;100.00
21817;BME280;13247;47.504;7.382;2023-02-13T10:29:41;99172.31;;;6.16;100.00
21817;BME280;13247;47.504;7.382;2023-02-13T10:32:55;99176.00;;;6.32;100.00
21817;BME280;13247;47.504;7.382;2023-02-13T10:36:17;99169.16;;;6.40;100.00
21817;BME280;13247;47.504;7.382;2023-02-13T10:45:00;99155.88;;;6.83;100.00
21817;BME280;13247;47.504;7.382;2023-02-13T10:51:03;99147.34;;;6.96;100.00
21817;BME280;13247;47.504;7.382;2023-02-13T11:03:33;99128.69;;;7.40;100.00
21817;BME280;13247;47.504;7.382;2023-02-13T11:06:18;99132.28;;;7.51;100.00
21817;BME280;13247;47.504;7.382;2023-02-13T11:09:05;99129.81;;;7.64;100.00
21817;BME280;13247;47.504;7.382;2023-02-13T11:11:52;99127.16;;;7.60;100.00
21817;BME280;13247;47.504;7.382;2023-02-13T11:14:38;99120.31;;;7.72;100.00
21817;BME280;13247;47.504;7.382;2023-02-13T11:17:39;99121.22;;;7.79;100.00
21817;BME280;13247;47.504;7.382;2023-02-13T11:20:32;99122.13;;;7.82;100.00
21817;BME280;13247;47.504;7.382;2023-02-13T11:26:15;99112.91;;;8.25;100.00
21817;BME280;13247;47.504;7.382;2023-02-13T11:29:28;99100.84;;;8.50;100.00
21817;BME280;13247;47.504;7.382;2023-02-13T11:35:29;99093.94;;;8.61;100.00
21817;BME280;13247;47.504;7.382;2023-02-13T11:41:21;99091.41;;;8.81;100.00
21817;BME280;13247;47.504;7.382;2023-02-13T11:44:24;99088.78;;;8.85;100.00
21817;BME280;13247;47.504;7.382;2023-02-13T11:47:09;99088.78;;;8.90;100.00
21817;BME280;13247;47.504;7.382;2023-02-13T11:49:54;99086.25;;;9.02;100.00
21817;BME280;13247;47.504;7.382;2023-02-13T11:52:39;99089.75;;;9.17;100.00
21817;BME280;13247;47.504;7.382;2023-02-13T11:55:29;99087.16;;;9.20;100.00
21817;BME280;13247;47.504;7.382;2023-02-13T12:04:17;99075.84;;;9.65;100.00
21817;BME280;13247;47.504;7.382;2023-02-13T12:07:24;99073.22;;;9.70;100.00
21817;BME280;13247;47.504;7.382;2023-02-13T12:10:25;99079.34;;;9.70;100.00
21817;BME280;13247;47.504;7.382;2023-02-13T12:13:14;99074.97;;;9.71;100.00
21817;BME280;13247;47.504;7.382;2023-02-13T12:16:23;99067.97;;;9.89;100.00
21817;BME280;13247;47.504;7.382;2023-02-13T12:19:14;99066.22;;;10.00;100.00
21817;BME280;13247;47.504;7.382;2023-02-13T12:25:24;99059.16;;;10.37;100.00
21817;BME280;13247;47.504;7.382;2023-02-13T12:41:16;99045.94;;;10.75;100.00
21817;BME280;13247;47.504;7.382;2023-02-13T12:47:18;99037.03;;;10.98;100.00
21817;BME280;13247;47.504;7.382;2023-02-13T13:02:57;99028.06;;;11.36;97.02
21817;BME280;13247;47.504;7.382;2023-02-13T13:09:34;99017.97;;;11.89;93.07
21817;BME280;13247;47.504;7.382;2023-02-13T13:15:48;99016.44;;;11.65;93.77
21817;BME280;13247;47.504;7.382;2023-02-13T13:22:17;99009.91;;;12.09;90.60
21817;BME280;13247;47.504;7.382;2023-02-13T13:28:22;99003.75;;;12.11;90.41
21817;BME280;13247;47.504;7.382;2023-02-13T13:31:09;99002.88;;;12.11;87.36
21817;BME280;13247;47.504;7.382;2023-02-13T13:34:01;99010.38;;;12.44;86.48
21817;BME280;13247;47.504;7.382;2023-02-13T13:36:52;99007.69;;;12.50;85.79
21817;BME280;13247;47.504;7.382;2023-02-13T13:51:24;99002.16;;;12.71;79.81
21817;BME280;13247;47.504;7.382;2023-02-13T14:02:37;98992.91;;;13.05;76.30
21817;BME280;13247;47.504;7.382;2023-02-13T14:11:42;98990.19;;;13.13;74.75
21817;BME280;13247;47.504;7.382;2023-02-13T14:17:14;98991.13;;;13.07;78.57
21817;BME280;13247;47.504;7.382;2023-02-13T14:19:59;98987.28;;;13.29;77.67
21817;BME280;13247;47.504;7.382;2023-02-13T14:22:44;98991.75;;;13.26;74.76
21817;BME280;13247;47.504;7.382;2023-02-13T14:25:29;98982.25;;;13.14;73.64
21817;BME280;13247;47.504;7.382;2023-02-13T14:28:24;98990.78;;;13.28;75.61
21817;BME280;13247;47.504;7.382;2023-02-13T14:31:38;98989.56;;;13.51;75.24
21817;BME280;13247;47.504;7.382;2023-02-13T14:34:25;98988.59;;;13.56;76.14
21817;BME280;13247;47.504;7.382;2023-02-13T14:37:18;98990.19;;;13.65;72.53
21817;BME280;13247;47.504;7.382;2023-02-13T14:40:45;98986.91;;;13.54;73.09
21817;BME280;13247;47.504;7.382;2023-02-13T14:44:07;98983.84;;;13.76;72.74
21817;BME280;13247;47.504;7.382;2023-02-13T14:46:43;98987.63;;;13.60;71.12
21817;BME280;13247;47.504;7.382;2023-02-13T14:49:35;98983.38;;;13.52;72.30
21817;BME280;13247;47.504;7.382;2023-02-13T14:52:37;98980.34;;;13.76;71.88
21817;BME280;13247;47.504;7.382;2023-02-13T14:58:22;98980.56;;;13.64;73.69
21817;BME280;13247;47.504;7.382;2023-02-13T15:01:34;98985.03;;;13.59;72.87
21817;BME280;13247;47.504;7.382;2023-02-13T15:04:48;98980.81;;;13.49;74.80
21817;BME280;13247;47.504;7.382;2023-02-13T15:07:37;98976.53;;;13.42;74.95
21817;BME280;13247;47.504;7.382;2023-02-13T15:10:46;98979.06;;;13.48;75.49
21817;BME280;13247;47.504;7.382;2023-02-13T15:13:34;98978.22;;;13.46;76.21
21817;BME280;13247;47.504;7.382;2023-02-13T15:16:20;98976.88;;;13.20;81.53
21817;BME280;13247;47.504;7.382;2023-02-13T15:19:05;98983.72;;;13.30;81.50
21817;BME280;13247;47.504;7.382;2023-02-13T15:21:58;98978.41;;;13.36;82.39
21817;BME280;13247;47.504;7.382;2023-02-13T15:24:46;98980.19;;;12.72;88.12
21817;BME280;13247;47.504;7.382;2023-02-13T15:27:51;98976.38;;;12.29;80.82
21817;BME280;13247;47.504;7.382;2023-02-13T15:30:59;98982.78;;;12.74;79.30
21817;BME280;13247;47.504;7.382;2023-02-13T15:33:46;98978.19;;;12.21;82.13
21817;BME280;13247;47.504;7.382;2023-02-13T15:36:40;98971.94;;;12.32;82.45
21817;BME280;13247;47.504;7.382;2023-02-13T15:39:30;98968.69;;;12.11;85.34
21817;BME280;13247;47.504;7.382;2023-02-13T15:42:15;98969.75;;;11.92;84.10
21817;BME280;13247;47.504;7.382;2023-02-13T15:45:00;98965.59;;;11.71;87.73
21817;BME280;13247;47.504;7.382;2023-02-13T15:47:46;98968.13;;;11.81;88.01
21817;BME280;13247;47.504;7.382;2023-02-13T15:50:34;98962.09;;;11.72;86.34
21817;BME280;13247;47.504;7.382;2023-02-13T15:53:19;98968.28;;;11.60;87.19
21817;BME280;13247;47.504;7.382;2023-02-13T15:56:05;98970.81;;;11.75;86.08
21817;BME280;13247;47.504;7.382;2023-02-13T15:58:51;98966.44;;;11.74;85.17
21817;BME280;13247;47.504;7.382;2023-02-13T16:01:37;98977.91;;;11.63;84.38
21817;BME280;13247;47.504;7.382;2023-02-13T16:04:24;98974.66;;;11.35;85.85
21817;BME280;13247;47.504;7.382;2023-02-13T16:07:11;98977.25;;;11.38;87.73
21817;BME280;13247;47.504;7.382;2023-02-13T16:13:30;98988.16;;;10.82;95.52
21817;BME280;13247;47.504;7.382;2023-02-13T16:16:15;98979.56;;;10.55;99.19
21817;BME280;13247;47.504;7.382;2023-02-13T16:19:00;98983.13;;;10.43;100.00
21817;BME280;13247;47.504;7.382;2023-02-13T16:21:47;98977.06;;;10.26;100.00
21817;BME280;13247;47.504;7.382;2023-02-13T16:24:33;98980.59;;;10.22;100.00
21817;BME280;13247;47.504;7.382;2023-02-13T16:27:24;98983.25;;;10.11;99.66
21817;BME280;13247;47.504;7.382;2023-02-13T16:30:30;98988.53;;;9.51;100.00
21817;BME280;13247;47.504;7.382;2023-02-13T16:38:54;98999.88;;;9.03;100.00
21817;BME280;13247;47.504;7.382;2023-02-13T16:41:39;99005.94;;;8.92;100.00
21817;BME280;13247;47.504;7.382;2023-02-13T16:44:26;98996.28;;;8.68;100.00
21817;BME280;13247;47.504;7.382;2023-02-13T16:47:24;99005.84;;;8.55;100.00
21817;BME280;13247;47.504;7.382;2023-02-13T16:50:14;99002.28;;;8.29;100.00
21817;BME280;13247;47.504;7.382;2023-02-13T16:53:01;99005.59;;;8.04;100.00
21817;BME280;13247;47.504;7.382;2023-02-13T16:55:54;99009.06;;;8.03;100.00
21817;BME280;13247;47.504;7.382;2023-02-13T16:58:39;99011.56;;;7.80;100.00
21817;BME280;13247;47.504;7.382;2023-02-13T17:01:24;99018.50;;;7.77;100.00
21817;BME280;13247;47.504;7.382;2023-02-13T17:04:18;99022.81;;;7.72;100.00
21817;BME280;13247;47.504;7.382;2023-02-13T17:07:17;99025.34;;;7.60;100.00
21817;BME280;13247;47.504;7.382;2023-02-13T17:10:16;99026.97;;;7.47;100.00
21817;BME280;13247;47.504;7.382;2023-02-13T17:15:56;99029.38;;;7.23;100.00
21817;BME280;13247;47.504;7.382;2023-02-13T17:18:42;99037.09;;;7.14;100.00
21817;BME280;13247;47.504;7.382;2023-02-13T17:21:27;99030.84;;;6.95;100.00
21817;BME280;13247;47.504;7.382;2023-02-13T17:24:17;99034.25;;;6.88;100.00
21817;BME280;13247;47.504;7.382;2023-02-13T17:27:02;99041.16;;;6.85;100.00
21817;BME280;13247;47.504;7.382;2023-02-13T17:29:46;99041.97;;;6.78;100.00
21817;BME280;13247;47.504;7.382;2023-02-13T17:32:31;99045.38;;;6.71;100.00
21817;BME280;13247;47.504;7.382;2023-02-13T17:35:16;99037.28;;;6.51;100.00
21817;BME280;13247;47.504;7.382;2023-02-13T17:38:00;99041.34;;;6.28;100.00
21817;BME280;13247;47.504;7.382;2023-02-13T17:40:46;99049.16;;;6.25;100.00
21817;BME280;13247;47.504;7.382;2023-02-13T17:43:31;99052.53;;;6.21;100.00
21817;BME280;13247;47.504;7.382;2023-02-13T17:46:16;99052.50;;;6.18;100.00
21817;BME280;13247;47.504;7.382;2023-02-13T17:49:01;99059.44;;;6.16;100.00
21817;BME280;13247;47.504;7.382;2023-02-13T17:51:47;99059.22;;;6.02;100.00
21817;BME280;13247;47.504;7.382;2023-02-13T17:54:32;99058.19;;;5.90;100.00
21817;BME280;13247;47.504;7.382;2023-02-13T17:57:17;99064.06;;;5.78;100.00
21817;BME280;13247;47.504;7.382;2023-02-13T18:00:03;99069.09;;;5.68;100.00
21817;BME280;13247;47.504;7.382;2023-02-13T18:02:49;99065.50;;;5.60;100.00